QTR1226 OTHH-OBBI
Flight info
| Callsign | QTR1226 |
|---|---|
| Flight time | 0h 23m |
| Altitude | 12000 |
| Route | TULUB2A/34L TULUB M444 KINID DCT BHR |
| Aircraft | A346/H-SDE2E3FGHIJ3J4J5M1RWXY/LB1D1 |
Departure
| Time | 2026-05-06 15:54 |
|---|---|
| Airport | Hamad International Airport (OTHH) |
Arrival
| Time | 2026-05-06 16:17 |
|---|---|
| Airport | Bahrain International Airport (OBBI) |
| Time | Latitude | Longitude | Altitude | Speed | Heading |
|---|---|---|---|---|---|
| 2026-05-06 15:28 | 25.26589 | 51.61029 | 39 ft | 0 kts | 68° |
| 2026-05-06 15:42 | 25.26588 | 51.61024 | 39 ft | 3 kts | 69° |
| 2026-05-06 15:42 | 25.26577 | 51.60997 | 37 ft | 4 kts | 62° |
| 2026-05-06 15:42 | 25.26568 | 51.60972 | 35 ft | 4 kts | 83° |
| 2026-05-06 15:42 | 25.26568 | 51.60948 | 35 ft | 4 kts | 105° |
| 2026-05-06 15:43 | 25.26577 | 51.60930 | 36 ft | 4 kts | 140° |
| 2026-05-06 15:43 | 25.26599 | 51.60915 | 36 ft | 4 kts | 152° |
| 2026-05-06 15:43 | 25.26612 | 51.60907 | 34 ft | 0 kts | 147° |
| 2026-05-06 15:50 | 25.26593 | 51.60920 | 35 ft | 7 kts | 147° |
| 2026-05-06 15:50 | 25.26535 | 51.60955 | 37 ft | 11 kts | 158° |
| 2026-05-06 15:50 | 25.26451 | 51.60993 | 39 ft | 14 kts | 158° |
| 2026-05-06 15:50 | 25.26350 | 51.61038 | 39 ft | 17 kts | 158° |
| 2026-05-06 15:51 | 25.26235 | 51.61043 | 39 ft | 19 kts | 218° |
| 2026-05-06 15:51 | 25.26173 | 51.60908 | 38 ft | 21 kts | 249° |
| 2026-05-06 15:51 | 25.26116 | 51.60746 | 38 ft | 23 kts | 248° |
| 2026-05-06 15:51 | 25.26052 | 51.60575 | 38 ft | 20 kts | 234° |
| 2026-05-06 15:52 | 25.25949 | 51.60562 | 38 ft | 16 kts | 156° |
| 2026-05-06 15:52 | 25.25837 | 51.60614 | 37 ft | 19 kts | 158° |
| 2026-05-06 15:52 | 25.25703 | 51.60674 | 37 ft | 22 kts | 157° |
| 2026-05-06 15:52 | 25.25589 | 51.60616 | 35 ft | 24 kts | 259° |
| 2026-05-06 15:53 | 25.25667 | 51.60486 | 34 ft | 14 kts | 347° |
| 2026-05-06 15:53 | 25.25696 | 51.60475 | 34 ft | 20 kts | 339° |
| 2026-05-06 15:53 | 25.26070 | 51.60306 | 38 ft | 94 kts | 338° |
| 2026-05-06 15:53 | 25.26882 | 51.59951 | 36 ft | 154 kts | 339° |
| 2026-05-06 15:54 | 25.27962 | 51.59475 | 415 ft | 174 kts | 340° |
| 2026-05-06 15:54 | 25.29111 | 51.58973 | 954 ft | 185 kts | 340° |
| 2026-05-06 15:54 | 25.30333 | 51.58438 | 1609 ft | 191 kts | 340° |
| 2026-05-06 15:54 | 25.31573 | 51.57892 | 2214 ft | 194 kts | 341° |
| 2026-05-06 15:55 | 25.32885 | 51.57311 | 2491 ft | 211 kts | 341° |
| 2026-05-06 15:55 | 25.34303 | 51.56683 | 2783 ft | 228 kts | 341° |
| 2026-05-06 15:55 | 25.35830 | 51.56009 | 3114 ft | 245 kts | 340° |
| 2026-05-06 15:55 | 25.37466 | 51.55286 | 3441 ft | 262 kts | 340° |
| 2026-05-06 15:56 | 25.39206 | 51.54514 | 3876 ft | 275 kts | 340° |
| 2026-05-06 15:56 | 25.40992 | 51.53718 | 4528 ft | 277 kts | 340° |
| 2026-05-06 15:56 | 25.42787 | 51.52920 | 5221 ft | 279 kts | 340° |
| 2026-05-06 15:56 | 25.44591 | 51.52120 | 5943 ft | 280 kts | 340° |
| 2026-05-06 15:57 | 25.46402 | 51.51319 | 6691 ft | 281 kts | 339° |
| 2026-05-06 15:57 | 25.48286 | 51.50746 | 7436 ft | 281 kts | 356° |
| 2026-05-06 15:57 | 25.50244 | 51.50903 | 8203 ft | 283 kts | 13° |
| 2026-05-06 15:57 | 25.52150 | 51.51500 | 8979 ft | 286 kts | 16° |
| 2026-05-06 15:58 | 25.54066 | 51.52155 | 9612 ft | 290 kts | 16° |
| 2026-05-06 15:58 | 25.56003 | 51.52810 | 9941 ft | 292 kts | 15° |
| 2026-05-06 15:58 | 25.57948 | 51.53455 | 10011 ft | 293 kts | 15° |
| 2026-05-06 15:58 | 25.59902 | 51.54098 | 10013 ft | 292 kts | 15° |
| 2026-05-06 15:59 | 25.61846 | 51.54737 | 10013 ft | 291 kts | 15° |
| 2026-05-06 15:59 | 25.63797 | 51.55346 | 10014 ft | 291 kts | 11° |
| 2026-05-06 15:59 | 25.65809 | 51.55541 | 10125 ft | 293 kts | 356° |
| 2026-05-06 15:59 | 25.67889 | 51.55179 | 10424 ft | 313 kts | 344° |
| 2026-05-06 16:00 | 25.70021 | 51.54449 | 10739 ft | 326 kts | 342° |
| 2026-05-06 16:00 | 25.72189 | 51.53651 | 11095 ft | 329 kts | 342° |
| 2026-05-06 16:00 | 25.74377 | 51.52848 | 11462 ft | 333 kts | 342° |
| 2026-05-06 16:00 | 25.76589 | 51.52044 | 11823 ft | 335 kts | 342° |
| 2026-05-06 16:01 | 25.78819 | 51.51245 | 12013 ft | 338 kts | 342° |
| 2026-05-06 16:01 | 25.81059 | 51.50443 | 12018 ft | 337 kts | 342° |
| 2026-05-06 16:01 | 25.83221 | 51.49446 | 12022 ft | 338 kts | 332° |
| 2026-05-06 16:01 | 25.85159 | 51.47957 | 12035 ft | 340 kts | 320° |
| 2026-05-06 16:02 | 25.86767 | 51.46087 | 12035 ft | 340 kts | 310° |
| 2026-05-06 16:02 | 25.88247 | 51.43997 | 12033 ft | 340 kts | 308° |
| 2026-05-06 16:02 | 25.89664 | 51.41936 | 12033 ft | 340 kts | 308° |
| 2026-05-06 16:02 | 25.91103 | 51.39846 | 12041 ft | 341 kts | 308° |
| 2026-05-06 16:03 | 25.92550 | 51.37757 | 12029 ft | 341 kts | 308° |
| 2026-05-06 16:03 | 25.93999 | 51.35676 | 11797 ft | 339 kts | 308° |
| 2026-05-06 16:03 | 25.95445 | 51.33612 | 11566 ft | 338 kts | 308° |
| 2026-05-06 16:03 | 25.96846 | 51.31514 | 11319 ft | 337 kts | 304° |
| 2026-05-06 16:04 | 25.98067 | 51.29301 | 11087 ft | 335 kts | 299° |
| 2026-05-06 16:04 | 25.99160 | 51.27020 | 10849 ft | 332 kts | 298° |
| 2026-05-06 16:04 | 26.00225 | 51.24744 | 10611 ft | 328 kts | 298° |
| 2026-05-06 16:04 | 26.01266 | 51.22513 | 10323 ft | 323 kts | 298° |
| 2026-05-06 16:05 | 26.02291 | 51.20314 | 10040 ft | 317 kts | 298° |
| 2026-05-06 16:05 | 26.03296 | 51.18160 | 9859 ft | 308 kts | 297° |
| 2026-05-06 16:05 | 26.04266 | 51.16081 | 9725 ft | 297 kts | 297° |
| 2026-05-06 16:05 | 26.05200 | 51.14075 | 9608 ft | 287 kts | 297° |
| 2026-05-06 16:06 | 26.06123 | 51.12097 | 9485 ft | 288 kts | 298° |
| 2026-05-06 16:06 | 26.07040 | 51.10129 | 9365 ft | 286 kts | 298° |
| 2026-05-06 16:06 | 26.07958 | 51.08160 | 9254 ft | 286 kts | 298° |
| 2026-05-06 16:06 | 26.08876 | 51.06194 | 9127 ft | 288 kts | 297° |
| 2026-05-06 16:07 | 26.09801 | 51.04210 | 8704 ft | 290 kts | 297° |
| 2026-05-06 16:07 | 26.10739 | 51.02199 | 7827 ft | 295 kts | 297° |
| 2026-05-06 16:07 | 26.11713 | 51.00209 | 6958 ft | 298 kts | 301° |
| 2026-05-06 16:07 | 26.12816 | 50.98244 | 6100 ft | 300 kts | 302° |
| 2026-05-06 16:08 | 26.13943 | 50.96307 | 5449 ft | 294 kts | 303° |
| 2026-05-06 16:08 | 26.15035 | 50.94444 | 5077 ft | 279 kts | 303° |
| 2026-05-06 16:08 | 26.16086 | 50.92652 | 5071 ft | 276 kts | 303° |
| 2026-05-06 16:08 | 26.16962 | 50.90750 | 4974 ft | 277 kts | 285° |
| 2026-05-06 16:09 | 26.17050 | 50.88623 | 4590 ft | 277 kts | 258° |
| 2026-05-06 16:09 | 26.16267 | 50.86691 | 4072 ft | 274 kts | 230° |
| 2026-05-06 16:09 | 26.14877 | 50.85297 | 3666 ft | 264 kts | 216° |
| 2026-05-06 16:09 | 26.13389 | 50.84140 | 3209 ft | 259 kts | 213° |
| 2026-05-06 16:10 | 26.11859 | 50.83108 | 2721 ft | 255 kts | 199° |
| 2026-05-06 16:10 | 26.10135 | 50.82868 | 2248 ft | 250 kts | 168° |
| 2026-05-06 16:10 | 26.08610 | 50.83636 | 1994 ft | 236 kts | 135° |
| 2026-05-06 16:10 | 26.07788 | 50.85074 | 1972 ft | 211 kts | 100° |
| 2026-05-06 16:11 | 26.07852 | 50.86643 | 1832 ft | 203 kts | 63° |
| 2026-05-06 16:11 | 26.08715 | 50.87818 | 1545 ft | 195 kts | 24° |
| 2026-05-06 16:11 | 26.10002 | 50.88082 | 1502 ft | 192 kts | 347° |
| 2026-05-06 16:11 | 26.11273 | 50.87603 | 1537 ft | 193 kts | 336° |
| 2026-05-06 16:12 | 26.12478 | 50.86946 | 1546 ft | 193 kts | 329° |
| 2026-05-06 16:12 | 26.13583 | 50.86083 | 1547 ft | 196 kts | 319° |
| 2026-05-06 16:12 | 26.14531 | 50.84987 | 1504 ft | 197 kts | 309° |
| 2026-05-06 16:12 | 26.15353 | 50.83755 | 1512 ft | 197 kts | 306° |
| 2026-05-06 16:13 | 26.16112 | 50.82502 | 1520 ft | 193 kts | 304° |
| 2026-05-06 16:13 | 26.16848 | 50.81234 | 1511 ft | 200 kts | 303° |
| 2026-05-06 16:13 | 26.17617 | 50.79891 | 1523 ft | 208 kts | 303° |
| 2026-05-06 16:13 | 26.18389 | 50.78537 | 1514 ft | 210 kts | 303° |
| 2026-05-06 16:14 | 26.19179 | 50.77152 | 1515 ft | 207 kts | 303° |
| 2026-05-06 16:14 | 26.19949 | 50.75801 | 1511 ft | 207 kts | 304° |
| 2026-05-06 16:14 | 26.20716 | 50.74459 | 1512 ft | 208 kts | 304° |
| 2026-05-06 16:14 | 26.21501 | 50.73090 | 1531 ft | 203 kts | 304° |
| 2026-05-06 16:15 | 26.22216 | 50.71838 | 1432 ft | 186 kts | 305° |
| 2026-05-06 16:15 | 26.22894 | 50.70657 | 1208 ft | 176 kts | 304° |
| 2026-05-06 16:15 | 26.23528 | 50.69551 | 963 ft | 162 kts | 306° |
| 2026-05-06 16:15 | 26.24126 | 50.68506 | 803 ft | 159 kts | 306° |
| 2026-05-06 16:16 | 26.24723 | 50.67474 | 629 ft | 158 kts | 304° |
| 2026-05-06 16:16 | 26.25319 | 50.66444 | 428 ft | 158 kts | 304° |
| 2026-05-06 16:16 | 26.25902 | 50.65408 | 147 ft | 152 kts | 303° |
| 2026-05-06 16:16 | 26.26448 | 50.64474 | 30 ft | 123 kts | 304° |
| 2026-05-06 16:17 | 26.26794 | 50.63873 | 28 ft | 60 kts | 301° |
| 2026-05-06 16:17 | 26.26974 | 50.63554 | 26 ft | 37 kts | 303° |
| 2026-05-06 16:17 | 26.27117 | 50.63309 | 30 ft | 37 kts | 302° |
| 2026-05-06 16:17 | 26.27224 | 50.63107 | 27 ft | 22 kts | 291° |
| 2026-05-06 16:18 | 26.27250 | 50.62965 | 28 ft | 9 kts | 274° |
| 2026-05-06 16:18 | 26.27253 | 50.62910 | 28 ft | 8 kts | 274° |
| 2026-05-06 16:18 | 26.27255 | 50.62876 | 29 ft | 1 kts | 274° |
| 2026-05-06 16:18 | 26.27252 | 50.62859 | 29 ft | 5 kts | 243° |
| 2026-05-06 16:19 | 26.27216 | 50.62853 | 29 ft | 8 kts | 163° |
| 2026-05-06 16:19 | 26.27158 | 50.62891 | 28 ft | 11 kts | 155° |
| 2026-05-06 16:19 | 26.27067 | 50.62895 | 28 ft | 14 kts | 173° |
| 2026-05-06 16:19 | 26.26989 | 50.62971 | 28 ft | 17 kts | 125° |
| 2026-05-06 16:20 | 26.26916 | 50.63092 | 28 ft | 19 kts | 123° |
| 2026-05-06 16:20 | 26.26875 | 50.63162 | 28 ft | 0 kts | 122° |
| 2026-05-06 16:20 | 26.26867 | 50.63175 | 28 ft | 5 kts | 129° |
| 2026-05-06 16:21 | 26.26843 | 50.63192 | 28 ft | 6 kts | 168° |
| 2026-05-06 16:21 | 26.26797 | 50.63172 | 28 ft | 9 kts | 212° |
| 2026-05-06 16:21 | 26.26780 | 50.63160 | 28 ft | 2 kts | 212° |
| 2026-05-06 16:21 | 26.26767 | 50.63151 | 28 ft | 0 kts | 212° |
| 2026-05-06 16:22 | 26.26766 | 50.63151 | 28 ft | 0 kts | 212° |